HAL235V KLAX-PHNL
Flight info
| Callsign | HAL235V |
|---|---|
| Flight time | N/A |
| Altitude | 40000 |
| Route | SUMMR2 DINTY DUETS R576 DENNS MAGGI3 |
| Aircraft | B789/H-SDE1E2E3FGHIJ2J3J4J5M1RWXY/LB1D1 |
Departure
| Time | N/A |
|---|---|
| Airport | Los Angeles International Airport (KLAX) |
Arrival
| Time | 2026-05-05 18:46 |
|---|---|
| Airport | Daniel K. Inouye International Airport (PHNL) |
| Time | Latitude | Longitude | Altitude | Speed | Heading |
|---|---|---|---|---|---|
| 2026-05-05 16:50 | 26.04214 | -146.08434 | 40191 ft | 440 kts | 247° |
| 2026-05-05 16:50 | 26.02886 | -146.11500 | 40190 ft | 440 kts | 247° |
| 2026-05-05 16:50 | 26.00228 | -146.17632 | 40192 ft | 441 kts | 247° |
| 2026-05-05 16:51 | 25.97570 | -146.23765 | 40204 ft | 439 kts | 248° |
| 2026-05-05 16:51 | 25.94925 | -146.29862 | 40198 ft | 438 kts | 247° |
| 2026-05-05 16:52 | 25.92274 | -146.35961 | 40192 ft | 439 kts | 247° |
| 2026-05-05 16:52 | 25.89614 | -146.42076 | 40196 ft | 440 kts | 247° |
| 2026-05-05 16:53 | 25.86946 | -146.48196 | 40205 ft | 441 kts | 247° |
| 2026-05-05 16:53 | 25.84270 | -146.54329 | 40195 ft | 442 kts | 247° |
| 2026-05-05 16:54 | 25.81591 | -146.60457 | 40191 ft | 440 kts | 247° |
| 2026-05-05 16:54 | 25.78947 | -146.66500 | 40178 ft | 438 kts | 247° |
| 2026-05-05 16:55 | 25.76288 | -146.72566 | 40179 ft | 437 kts | 247° |
| 2026-05-05 16:55 | 25.73629 | -146.78625 | 40174 ft | 437 kts | 247° |
| 2026-05-05 16:56 | 25.70968 | -146.84681 | 40171 ft | 437 kts | 247° |
| 2026-05-05 16:56 | 25.68294 | -146.90758 | 40172 ft | 439 kts | 247° |
| 2026-05-05 16:57 | 25.65616 | -146.96833 | 40179 ft | 438 kts | 247° |
| 2026-05-05 16:57 | 25.62943 | -147.02890 | 40179 ft | 437 kts | 247° |
| 2026-05-05 16:58 | 25.60272 | -147.08935 | 40174 ft | 436 kts | 247° |
| 2026-05-05 16:58 | 25.57619 | -147.14928 | 40186 ft | 436 kts | 247° |
| 2026-05-05 16:59 | 25.54928 | -147.21002 | 40177 ft | 437 kts | 247° |
| 2026-05-05 16:59 | 25.52266 | -147.27001 | 40178 ft | 437 kts | 247° |
| 2026-05-05 17:00 | 25.49580 | -147.33045 | 40159 ft | 437 kts | 247° |
| 2026-05-05 17:00 | 25.46896 | -147.39077 | 40185 ft | 436 kts | 247° |
| 2026-05-05 17:01 | 25.44212 | -147.45101 | 40186 ft | 436 kts | 247° |
| 2026-05-05 17:01 | 25.41523 | -147.51127 | 40182 ft | 436 kts | 247° |
| 2026-05-05 17:02 | 25.38834 | -147.57147 | 40177 ft | 437 kts | 247° |
| 2026-05-05 17:02 | 25.36141 | -147.63165 | 40176 ft | 437 kts | 247° |
| 2026-05-05 17:03 | 25.33447 | -147.69180 | 40176 ft | 437 kts | 247° |
| 2026-05-05 17:03 | 25.30768 | -147.75151 | 40165 ft | 436 kts | 247° |
| 2026-05-05 17:04 | 25.28078 | -147.81140 | 40164 ft | 435 kts | 247° |
| 2026-05-05 17:04 | 25.25389 | -147.87117 | 40162 ft | 434 kts | 247° |
| 2026-05-05 17:05 | 25.22703 | -147.93080 | 40166 ft | 433 kts | 246° |
| 2026-05-05 17:05 | 25.20010 | -147.99054 | 40169 ft | 435 kts | 246° |
| 2026-05-05 17:06 | 25.17308 | -148.05035 | 40169 ft | 436 kts | 246° |
| 2026-05-05 17:06 | 25.14601 | -148.11022 | 40165 ft | 435 kts | 246° |
| 2026-05-05 17:07 | 25.11895 | -148.16998 | 40165 ft | 435 kts | 246° |
| 2026-05-05 17:07 | 25.09208 | -148.22924 | 40168 ft | 435 kts | 246° |
| 2026-05-05 17:08 | 25.06502 | -148.28884 | 40167 ft | 434 kts | 246° |
| 2026-05-05 17:08 | 25.03794 | -148.34841 | 40166 ft | 434 kts | 246° |
| 2026-05-05 17:09 | 25.01086 | -148.40788 | 40169 ft | 434 kts | 246° |
| 2026-05-05 17:09 | 24.98374 | -148.46739 | 40168 ft | 434 kts | 246° |
| 2026-05-05 17:10 | 24.95668 | -148.52668 | 40159 ft | 433 kts | 246° |
| 2026-05-05 17:10 | 24.92965 | -148.58583 | 40156 ft | 432 kts | 246° |
| 2026-05-05 17:11 | 24.90256 | -148.64504 | 40152 ft | 433 kts | 246° |
| 2026-05-05 17:11 | 24.87535 | -148.70441 | 40157 ft | 435 kts | 246° |
| 2026-05-05 17:12 | 24.84803 | -148.76399 | 40155 ft | 436 kts | 246° |
| 2026-05-05 17:12 | 24.82072 | -148.82340 | 40159 ft | 434 kts | 246° |
| 2026-05-05 17:13 | 24.79355 | -148.88248 | 40139 ft | 432 kts | 246° |
| 2026-05-05 17:13 | 24.76640 | -148.94143 | 40165 ft | 433 kts | 246° |
| 2026-05-05 17:14 | 24.73927 | -149.00026 | 40161 ft | 434 kts | 246° |
| 2026-05-05 17:14 | 24.71192 | -149.05949 | 40164 ft | 434 kts | 246° |
| 2026-05-05 17:15 | 24.68459 | -149.11859 | 40164 ft | 433 kts | 246° |
| 2026-05-05 17:15 | 24.65732 | -149.17750 | 40163 ft | 432 kts | 246° |
| 2026-05-05 17:16 | 24.63007 | -149.23629 | 40158 ft | 431 kts | 246° |
| 2026-05-05 17:16 | 24.60282 | -149.29501 | 40155 ft | 431 kts | 246° |
| 2026-05-05 17:17 | 24.57552 | -149.35374 | 40163 ft | 431 kts | 246° |
| 2026-05-05 17:17 | 24.54822 | -149.41241 | 40162 ft | 431 kts | 246° |
| 2026-05-05 17:18 | 24.52092 | -149.47101 | 40160 ft | 431 kts | 246° |
| 2026-05-05 17:18 | 24.49822 | -149.51968 | 40161 ft | 431 kts | 246° |
| 2026-05-05 17:19 | 24.46645 | -149.58771 | 40152 ft | 430 kts | 246° |
| 2026-05-05 17:19 | 24.44356 | -149.63668 | 40143 ft | 430 kts | 246° |
| 2026-05-05 17:20 | 24.41622 | -149.69502 | 40155 ft | 431 kts | 246° |
| 2026-05-05 17:20 | 24.38876 | -149.75367 | 40155 ft | 433 kts | 246° |
| 2026-05-05 17:21 | 24.36116 | -149.81241 | 40161 ft | 432 kts | 246° |
| 2026-05-05 17:22 | 24.32008 | -149.89982 | 40153 ft | 431 kts | 246° |
| 2026-05-05 17:22 | 24.29259 | -149.95821 | 40153 ft | 430 kts | 246° |
| 2026-05-05 17:23 | 24.26514 | -150.01644 | 40155 ft | 429 kts | 246° |
| 2026-05-05 17:23 | 24.23769 | -150.07460 | 40135 ft | 431 kts | 246° |
| 2026-05-05 17:24 | 24.21012 | -150.13298 | 40146 ft | 432 kts | 246° |
| 2026-05-05 17:24 | 24.18239 | -150.19156 | 40150 ft | 433 kts | 246° |
| 2026-05-05 17:25 | 24.15470 | -150.25001 | 40152 ft | 431 kts | 246° |
| 2026-05-05 17:25 | 24.12710 | -150.30819 | 40150 ft | 430 kts | 246° |
| 2026-05-05 17:26 | 24.09958 | -150.36615 | 40144 ft | 429 kts | 246° |
| 2026-05-05 17:26 | 24.07197 | -150.42423 | 40146 ft | 431 kts | 245° |
| 2026-05-05 17:27 | 24.04420 | -150.48254 | 40138 ft | 433 kts | 245° |
| 2026-05-05 17:27 | 24.01639 | -150.54089 | 40141 ft | 432 kts | 245° |
| 2026-05-05 17:28 | 23.98874 | -150.59880 | 39430 ft | 429 kts | 245° |
| 2026-05-05 17:28 | 23.97486 | -150.62793 | 38463 ft | 435 kts | 245° |
| 2026-05-05 17:28 | 23.96078 | -150.65739 | 37439 ft | 439 kts | 245° |
| 2026-05-05 17:28 | 23.94654 | -150.68713 | 36366 ft | 444 kts | 245° |
| 2026-05-05 17:29 | 23.93228 | -150.71694 | 35280 ft | 451 kts | 245° |
| 2026-05-05 17:29 | 23.91766 | -150.74749 | 34169 ft | 457 kts | 245° |
| 2026-05-05 17:29 | 23.90280 | -150.77850 | 32881 ft | 463 kts | 244° |
| 2026-05-05 17:29 | 23.88777 | -150.80982 | 31822 ft | 466 kts | 244° |
| 2026-05-05 17:30 | 23.87281 | -150.84097 | 31072 ft | 460 kts | 244° |
| 2026-05-05 17:30 | 23.85801 | -150.87178 | 30270 ft | 456 kts | 244° |
| 2026-05-05 17:30 | 23.84335 | -150.90232 | 29418 ft | 452 kts | 244° |
| 2026-05-05 17:30 | 23.82883 | -150.93254 | 28611 ft | 447 kts | 244° |
| 2026-05-05 17:31 | 23.81446 | -150.96240 | 27820 ft | 442 kts | 244° |
| 2026-05-05 17:31 | 23.80023 | -150.99197 | 27043 ft | 438 kts | 244° |
| 2026-05-05 17:31 | 23.78614 | -151.02123 | 26272 ft | 433 kts | 244° |
| 2026-05-05 17:31 | 23.77218 | -151.05020 | 25526 ft | 429 kts | 244° |
| 2026-05-05 17:32 | 23.75842 | -151.07871 | 25148 ft | 418 kts | 244° |
| 2026-05-05 17:32 | 23.74505 | -151.10640 | 25137 ft | 412 kts | 244° |
| 2026-05-05 17:32 | 23.73149 | -151.13456 | 25151 ft | 425 kts | 244° |
| 2026-05-05 17:32 | 23.71769 | -151.16316 | 25149 ft | 426 kts | 244° |
| 2026-05-05 17:33 | 23.70384 | -151.19176 | 25148 ft | 427 kts | 244° |
| 2026-05-05 17:33 | 23.68997 | -151.22042 | 25164 ft | 427 kts | 244° |
| 2026-05-05 17:33 | 23.67611 | -151.24909 | 25146 ft | 428 kts | 244° |
| 2026-05-05 17:33 | 23.66221 | -151.27780 | 25149 ft | 428 kts | 244° |
| 2026-05-05 17:34 | 23.64829 | -151.30653 | 25151 ft | 429 kts | 244° |
| 2026-05-05 17:34 | 23.63434 | -151.33530 | 25142 ft | 429 kts | 244° |
| 2026-05-05 17:34 | 23.62042 | -151.36399 | 25143 ft | 428 kts | 244° |
| 2026-05-05 17:34 | 23.60652 | -151.39265 | 25145 ft | 427 kts | 244° |
| 2026-05-05 17:35 | 23.59280 | -151.42089 | 25144 ft | 426 kts | 244° |
| 2026-05-05 17:35 | 23.57891 | -151.44947 | 25141 ft | 427 kts | 244° |
| 2026-05-05 17:35 | 23.56503 | -151.47804 | 25148 ft | 427 kts | 244° |
| 2026-05-05 17:35 | 23.55113 | -151.50661 | 25143 ft | 427 kts | 244° |
| 2026-05-05 17:36 | 23.53717 | -151.53527 | 25142 ft | 427 kts | 244° |
| 2026-05-05 17:36 | 23.52326 | -151.56384 | 25146 ft | 427 kts | 244° |
| 2026-05-05 17:36 | 23.50932 | -151.59246 | 25147 ft | 427 kts | 244° |
| 2026-05-05 17:36 | 23.49537 | -151.62107 | 25147 ft | 428 kts | 244° |
| 2026-05-05 17:37 | 23.48140 | -151.64969 | 25150 ft | 428 kts | 244° |
| 2026-05-05 17:37 | 23.46743 | -151.67830 | 25131 ft | 428 kts | 244° |
| 2026-05-05 17:37 | 23.45343 | -151.70697 | 25145 ft | 429 kts | 244° |
| 2026-05-05 17:37 | 23.43940 | -151.73568 | 25148 ft | 430 kts | 244° |
| 2026-05-05 17:38 | 23.42535 | -151.76440 | 25151 ft | 429 kts | 244° |
| 2026-05-05 17:38 | 23.41133 | -151.79306 | 25147 ft | 429 kts | 244° |
| 2026-05-05 17:38 | 23.39729 | -151.82173 | 25144 ft | 429 kts | 244° |
| 2026-05-05 17:38 | 23.38324 | -151.85040 | 25146 ft | 429 kts | 244° |
| 2026-05-05 17:39 | 23.36918 | -151.87910 | 25142 ft | 429 kts | 244° |
| 2026-05-05 17:39 | 23.35513 | -151.90773 | 25142 ft | 429 kts | 244° |
| 2026-05-05 17:39 | 23.34109 | -151.93636 | 25147 ft | 428 kts | 244° |
| 2026-05-05 17:39 | 23.32708 | -151.96490 | 25147 ft | 428 kts | 244° |
| 2026-05-05 17:40 | 23.31305 | -151.99347 | 25147 ft | 428 kts | 244° |
| 2026-05-05 17:40 | 23.29902 | -152.02204 | 25145 ft | 429 kts | 244° |
| 2026-05-05 17:40 | 23.28508 | -152.05026 | 25142 ft | 429 kts | 243° |
| 2026-05-05 17:40 | 23.27096 | -152.07887 | 25145 ft | 429 kts | 244° |
| 2026-05-05 17:41 | 23.25692 | -152.10752 | 25128 ft | 431 kts | 244° |
| 2026-05-05 17:41 | 23.24277 | -152.13628 | 25129 ft | 431 kts | 243° |
| 2026-05-05 17:41 | 23.22863 | -152.16492 | 25132 ft | 431 kts | 243° |
| 2026-05-05 17:41 | 23.21442 | -152.19367 | 25129 ft | 430 kts | 243° |
| 2026-05-05 17:42 | 23.20028 | -152.22233 | 25132 ft | 430 kts | 243° |
| 2026-05-05 17:42 | 23.18618 | -152.25092 | 25136 ft | 429 kts | 243° |
| 2026-05-05 17:42 | 23.17207 | -152.27947 | 25136 ft | 429 kts | 243° |
| 2026-05-05 17:42 | 23.15795 | -152.30800 | 25137 ft | 429 kts | 243° |
| 2026-05-05 17:43 | 23.14383 | -152.33653 | 25134 ft | 429 kts | 243° |
| 2026-05-05 17:43 | 23.12972 | -152.36506 | 25135 ft | 429 kts | 243° |
| 2026-05-05 17:43 | 23.11558 | -152.39361 | 25131 ft | 429 kts | 243° |
| 2026-05-05 17:43 | 23.10142 | -152.42217 | 25131 ft | 429 kts | 243° |
| 2026-05-05 17:44 | 23.08727 | -152.45069 | 25134 ft | 429 kts | 243° |
| 2026-05-05 17:44 | 23.07312 | -152.47922 | 25135 ft | 429 kts | 243° |
| 2026-05-05 17:44 | 23.05895 | -152.50777 | 25124 ft | 429 kts | 243° |
| 2026-05-05 17:44 | 23.04475 | -152.53636 | 25132 ft | 431 kts | 243° |
| 2026-05-05 17:45 | 23.03051 | -152.56500 | 25131 ft | 431 kts | 243° |
| 2026-05-05 17:45 | 23.01628 | -152.59359 | 25128 ft | 431 kts | 243° |
| 2026-05-05 17:45 | 23.00197 | -152.62214 | 25129 ft | 430 kts | 243° |
| 2026-05-05 17:45 | 22.98762 | -152.65067 | 25132 ft | 430 kts | 243° |
| 2026-05-05 17:46 | 22.97331 | -152.67918 | 25132 ft | 430 kts | 243° |
| 2026-05-05 17:46 | 22.95922 | -152.70731 | 25135 ft | 430 kts | 243° |
| 2026-05-05 17:46 | 22.94476 | -152.73615 | 25132 ft | 430 kts | 243° |
| 2026-05-05 17:46 | 22.93045 | -152.76459 | 25134 ft | 430 kts | 243° |
| 2026-05-05 17:47 | 22.91632 | -152.79266 | 25128 ft | 429 kts | 243° |
| 2026-05-05 17:47 | 22.91035 | -152.80454 | 25130 ft | 429 kts | 243° |
| 2026-05-05 17:55 | 22.89969 | -152.82578 | 25142 ft | 441 kts | 243° |
| 2026-05-05 17:55 | 22.88506 | -152.85485 | 25145 ft | 437 kts | 243° |
| 2026-05-05 17:55 | 22.87049 | -152.88375 | 25148 ft | 437 kts | 243° |
| 2026-05-05 17:56 | 22.85591 | -152.91268 | 25148 ft | 437 kts | 243° |
| 2026-05-05 17:56 | 22.55013 | -153.56215 | 25133 ft | 19824 kts | 243° |
| 2026-05-05 17:56 | 22.46138 | -153.74756 | 25132 ft | 443 kts | 237° |
| 2026-05-05 17:56 | 22.44218 | -153.77272 | 25125 ft | 423 kts | 230° |
| 2026-05-05 17:57 | 22.42230 | -153.79510 | 25105 ft | 402 kts | 228° |
| 2026-05-05 17:57 | 22.40342 | -153.81641 | 25113 ft | 386 kts | 230° |
| 2026-05-05 17:57 | 22.38569 | -153.83864 | 25119 ft | 399 kts | 234° |
| 2026-05-05 17:57 | 22.36967 | -153.86408 | 25130 ft | 420 kts | 244° |
| 2026-05-05 17:58 | 22.35897 | -153.89392 | 25148 ft | 433 kts | 257° |
| 2026-05-05 17:58 | 22.35337 | -153.92593 | 25141 ft | 434 kts | 261° |
| 2026-05-05 17:58 | 22.34851 | -153.95792 | 24637 ft | 432 kts | 260° |
| 2026-05-05 17:58 | 22.34217 | -153.98973 | 24085 ft | 432 kts | 257° |
| 2026-05-05 17:59 | 22.33513 | -154.02116 | 23593 ft | 429 kts | 257° |
| 2026-05-05 17:59 | 22.32874 | -154.05253 | 23044 ft | 427 kts | 259° |
| 2026-05-05 17:59 | 22.32282 | -154.08381 | 22540 ft | 423 kts | 259° |
| 2026-05-05 17:59 | 22.31672 | -154.11479 | 22038 ft | 421 kts | 258° |
| 2026-05-05 18:00 | 22.31038 | -154.14555 | 21549 ft | 418 kts | 258° |
| 2026-05-05 18:00 | 22.30416 | -154.17610 | 21135 ft | 415 kts | 258° |
| 2026-05-05 18:00 | 22.29815 | -154.20625 | 21129 ft | 410 kts | 258° |
| 2026-05-05 18:00 | 22.29210 | -154.23654 | 21138 ft | 415 kts | 258° |
| 2026-05-05 18:01 | 22.28594 | -154.26700 | 21135 ft | 415 kts | 258° |
| 2026-05-05 18:01 | 22.27976 | -154.29745 | 21137 ft | 416 kts | 258° |
| 2026-05-05 18:01 | 22.27360 | -154.32796 | 21135 ft | 416 kts | 258° |
| 2026-05-05 18:01 | 22.26743 | -154.35849 | 21138 ft | 417 kts | 258° |
| 2026-05-05 18:02 | 22.26125 | -154.38897 | 21131 ft | 415 kts | 258° |
| 2026-05-05 18:02 | 22.25510 | -154.41935 | 21133 ft | 414 kts | 258° |
| 2026-05-05 18:02 | 22.24901 | -154.44937 | 21133 ft | 415 kts | 258° |
| 2026-05-05 18:02 | 22.24284 | -154.47978 | 21127 ft | 416 kts | 258° |
| 2026-05-05 18:03 | 22.23660 | -154.51040 | 21128 ft | 417 kts | 258° |
| 2026-05-05 18:03 | 22.23038 | -154.54095 | 21129 ft | 417 kts | 258° |
| 2026-05-05 18:03 | 22.22416 | -154.57152 | 21131 ft | 417 kts | 258° |
| 2026-05-05 18:03 | 22.21792 | -154.60212 | 21130 ft | 417 kts | 258° |
| 2026-05-05 18:04 | 22.21168 | -154.63268 | 21129 ft | 417 kts | 258° |
| 2026-05-05 18:04 | 22.20543 | -154.66324 | 21131 ft | 417 kts | 258° |
| 2026-05-05 18:04 | 22.19918 | -154.69379 | 21129 ft | 417 kts | 258° |
| 2026-05-05 18:04 | 22.19293 | -154.72430 | 21129 ft | 416 kts | 258° |
| 2026-05-05 18:05 | 22.18668 | -154.75479 | 21128 ft | 416 kts | 258° |
| 2026-05-05 18:05 | 22.18043 | -154.78529 | 21125 ft | 416 kts | 258° |
| 2026-05-05 18:05 | 22.17418 | -154.81573 | 21125 ft | 416 kts | 258° |
| 2026-05-05 18:05 | 22.16791 | -154.84619 | 21123 ft | 415 kts | 258° |
| 2026-05-05 18:06 | 22.16166 | -154.87660 | 21121 ft | 415 kts | 258° |
| 2026-05-05 18:06 | 22.15954 | -154.88686 | 21121 ft | 416 kts | 258° |
| 2026-05-05 18:06 | 22.14910 | -154.93752 | 21121 ft | 416 kts | 258° |
| 2026-05-05 18:06 | 22.14485 | -154.95811 | 21121 ft | 416 kts | 258° |
| 2026-05-05 18:07 | 22.13864 | -154.98816 | 21124 ft | 416 kts | 258° |
| 2026-05-05 18:07 | 22.13236 | -155.01857 | 21122 ft | 415 kts | 258° |
| 2026-05-05 18:07 | 22.12606 | -155.04902 | 21123 ft | 415 kts | 258° |
| 2026-05-05 18:07 | 22.11975 | -155.07946 | 21124 ft | 416 kts | 258° |
| 2026-05-05 18:08 | 22.11343 | -155.10994 | 21124 ft | 417 kts | 258° |
| 2026-05-05 18:08 | 22.10709 | -155.14047 | 21124 ft | 417 kts | 258° |
| 2026-05-05 18:08 | 22.10075 | -155.17100 | 21126 ft | 417 kts | 258° |
| 2026-05-05 18:08 | 22.09442 | -155.20145 | 21125 ft | 416 kts | 258° |
| 2026-05-05 18:09 | 22.08808 | -155.23188 | 21122 ft | 415 kts | 258° |
| 2026-05-05 18:09 | 22.08176 | -155.26222 | 21121 ft | 415 kts | 258° |
| 2026-05-05 18:09 | 22.07541 | -155.29267 | 21114 ft | 417 kts | 258° |
| 2026-05-05 18:09 | 22.06905 | -155.32317 | 21114 ft | 417 kts | 258° |
| 2026-05-05 18:10 | 22.06267 | -155.35367 | 21114 ft | 417 kts | 258° |
| 2026-05-05 18:10 | 22.05629 | -155.38418 | 21113 ft | 417 kts | 258° |
| 2026-05-05 18:10 | 22.04989 | -155.41472 | 21113 ft | 417 kts | 258° |
| 2026-05-05 18:10 | 22.04350 | -155.44525 | 21116 ft | 418 kts | 258° |
| 2026-05-05 18:11 | 22.03709 | -155.47577 | 21114 ft | 418 kts | 258° |
| 2026-05-05 18:11 | 22.03067 | -155.50632 | 21112 ft | 418 kts | 258° |
| 2026-05-05 18:11 | 22.02433 | -155.53646 | 21113 ft | 418 kts | 258° |
| 2026-05-05 18:11 | 22.01792 | -155.56699 | 21112 ft | 418 kts | 258° |
| 2026-05-05 18:12 | 22.01148 | -155.59757 | 21115 ft | 418 kts | 258° |
| 2026-05-05 18:12 | 22.00505 | -155.62808 | 21115 ft | 418 kts | 258° |
| 2026-05-05 18:12 | 21.99860 | -155.65864 | 21116 ft | 418 kts | 258° |
| 2026-05-05 18:12 | 21.99214 | -155.68920 | 21116 ft | 418 kts | 258° |
| 2026-05-05 18:13 | 21.98569 | -155.71973 | 21114 ft | 418 kts | 258° |
| 2026-05-05 18:13 | 21.97922 | -155.75028 | 21111 ft | 418 kts | 258° |
| 2026-05-05 18:13 | 21.97275 | -155.78082 | 21111 ft | 418 kts | 258° |
| 2026-05-05 18:13 | 21.96628 | -155.81131 | 21112 ft | 417 kts | 258° |
| 2026-05-05 18:14 | 21.95983 | -155.84174 | 21113 ft | 417 kts | 258° |
| 2026-05-05 18:14 | 21.95335 | -155.87223 | 21109 ft | 417 kts | 258° |
| 2026-05-05 18:14 | 21.94688 | -155.90265 | 21123 ft | 417 kts | 258° |
| 2026-05-05 18:14 | 21.94039 | -155.93313 | 21118 ft | 417 kts | 258° |
| 2026-05-05 18:15 | 21.93391 | -155.96355 | 21117 ft | 416 kts | 258° |
| 2026-05-05 18:15 | 21.92744 | -155.99391 | 21121 ft | 416 kts | 258° |
| 2026-05-05 18:15 | 21.92095 | -156.02428 | 21116 ft | 416 kts | 258° |
| 2026-05-05 18:15 | 21.91446 | -156.05467 | 21120 ft | 417 kts | 258° |
| 2026-05-05 18:16 | 21.90796 | -156.08508 | 21108 ft | 418 kts | 257° |
| 2026-05-05 18:16 | 21.90142 | -156.11563 | 21112 ft | 419 kts | 257° |
| 2026-05-05 18:16 | 21.89486 | -156.14622 | 21110 ft | 419 kts | 257° |
| 2026-05-05 18:16 | 21.88831 | -156.17675 | 21110 ft | 419 kts | 257° |
| 2026-05-05 18:17 | 21.88175 | -156.20732 | 21108 ft | 419 kts | 257° |
| 2026-05-05 18:17 | 21.87519 | -156.23785 | 21108 ft | 419 kts | 257° |
| 2026-05-05 18:17 | 21.86870 | -156.26802 | 20543 ft | 409 kts | 257° |
| 2026-05-05 18:17 | 21.86224 | -156.29801 | 19594 ft | 409 kts | 257° |
| 2026-05-05 18:18 | 21.85585 | -156.32773 | 18761 ft | 406 kts | 257° |
| 2026-05-05 18:18 | 21.84952 | -156.35717 | 17987 ft | 401 kts | 257° |
| 2026-05-05 18:18 | 21.84334 | -156.38583 | 17127 ft | 396 kts | 257° |
| 2026-05-05 18:18 | 21.83714 | -156.41460 | 16244 ft | 394 kts | 257° |
| 2026-05-05 18:19 | 21.83100 | -156.44304 | 15535 ft | 387 kts | 257° |
| 2026-05-05 18:19 | 21.82496 | -156.47100 | 14707 ft | 383 kts | 257° |
| 2026-05-05 18:19 | 21.81895 | -156.49884 | 13922 ft | 380 kts | 257° |
| 2026-05-05 18:19 | 21.81296 | -156.52647 | 13118 ft | 376 kts | 257° |
| 2026-05-05 18:20 | 21.80716 | -156.55325 | 13009 ft | 364 kts | 257° |
| 2026-05-05 18:20 | 21.80129 | -156.58033 | 13016 ft | 376 kts | 257° |
| 2026-05-05 18:20 | 21.79535 | -156.60772 | 13015 ft | 374 kts | 257° |
| 2026-05-05 18:20 | 21.78943 | -156.63506 | 13014 ft | 375 kts | 257° |
| 2026-05-05 18:21 | 21.78347 | -156.66236 | 13009 ft | 378 kts | 257° |
| 2026-05-05 18:21 | 21.77746 | -156.69001 | 13013 ft | 380 kts | 257° |
| 2026-05-05 18:21 | 21.77149 | -156.71748 | 13011 ft | 375 kts | 257° |
| 2026-05-05 18:21 | 21.76556 | -156.74474 | 13010 ft | 378 kts | 257° |
| 2026-05-05 18:22 | 21.75955 | -156.77225 | 13003 ft | 378 kts | 257° |
| 2026-05-05 18:22 | 21.75354 | -156.79978 | 13005 ft | 376 kts | 257° |
| 2026-05-05 18:22 | 21.74759 | -156.82704 | 13005 ft | 373 kts | 257° |
| 2026-05-05 18:22 | 21.74159 | -156.85448 | 13008 ft | 378 kts | 257° |
| 2026-05-05 18:23 | 21.73556 | -156.88207 | 13011 ft | 377 kts | 257° |
| 2026-05-05 18:23 | 21.72955 | -156.90945 | 13007 ft | 377 kts | 257° |
| 2026-05-05 18:23 | 21.72355 | -156.93688 | 13006 ft | 378 kts | 257° |
| 2026-05-05 18:23 | 21.71751 | -156.96446 | 13007 ft | 381 kts | 257° |
| 2026-05-05 18:24 | 21.71146 | -156.99197 | 13010 ft | 376 kts | 257° |
| 2026-05-05 18:24 | 21.70545 | -157.01932 | 13006 ft | 378 kts | 257° |
| 2026-05-05 18:24 | 21.69941 | -157.04684 | 13003 ft | 378 kts | 257° |
| 2026-05-05 18:24 | 21.69334 | -157.07441 | 13005 ft | 377 kts | 257° |
| 2026-05-05 18:25 | 21.68732 | -157.10172 | 13004 ft | 374 kts | 257° |
| 2026-05-05 18:25 | 21.68332 | -157.11987 | 13007 ft | 380 kts | 257° |
| 2026-05-05 18:25 | 21.67517 | -157.15680 | 12999 ft | 378 kts | 256° |
| 2026-05-05 18:25 | 21.66591 | -157.18308 | 12986 ft | 377 kts | 242° |
| 2026-05-05 18:26 | 21.65025 | -157.20568 | 12982 ft | 381 kts | 226° |
| 2026-05-05 18:26 | 21.63113 | -157.22539 | 12996 ft | 378 kts | 225° |
| 2026-05-05 18:26 | 21.61244 | -157.24433 | 12573 ft | 374 kts | 224° |
| 2026-05-05 18:26 | 21.59351 | -157.26339 | 12311 ft | 366 kts | 224° |
| 2026-05-05 18:27 | 21.57539 | -157.28180 | 12145 ft | 350 kts | 224° |
| 2026-05-05 18:27 | 21.55821 | -157.29931 | 11847 ft | 332 kts | 225° |
| 2026-05-05 18:27 | 21.54154 | -157.31627 | 11235 ft | 327 kts | 224° |
| 2026-05-05 18:27 | 21.52515 | -157.33291 | 10645 ft | 321 kts | 224° |
| 2026-05-05 18:28 | 21.49320 | -157.36530 | 9470 ft | 310 kts | 224° |
| 2026-05-05 18:28 | 21.47767 | -157.38107 | 8992 ft | 302 kts | 224° |
| 2026-05-05 18:28 | 21.46299 | -157.39593 | 9006 ft | 280 kts | 224° |
| 2026-05-05 18:29 | 21.44823 | -157.41090 | 9012 ft | 311 kts | 224° |
| 2026-05-05 18:29 | 21.43159 | -157.42723 | 9013 ft | 325 kts | 220° |
| 2026-05-05 18:29 | 21.41439 | -157.44285 | 8856 ft | 325 kts | 221° |
| 2026-05-05 18:29 | 21.39848 | -157.45821 | 8130 ft | 288 kts | 222° |
| 2026-05-05 18:30 | 21.38428 | -157.47178 | 7396 ft | 262 kts | 221° |
| 2026-05-05 18:30 | 21.37099 | -157.48412 | 6653 ft | 244 kts | 221° |
| 2026-05-05 18:30 | 21.35853 | -157.49567 | 6054 ft | 227 kts | 221° |
| 2026-05-05 18:30 | 21.34694 | -157.50650 | 5973 ft | 219 kts | 221° |
| 2026-05-05 18:31 | 21.33529 | -157.51739 | 5979 ft | 227 kts | 221° |
| 2026-05-05 18:31 | 21.32344 | -157.52847 | 5987 ft | 225 kts | 221° |
| 2026-05-05 18:31 | 21.31158 | -157.53953 | 5988 ft | 225 kts | 221° |
| 2026-05-05 18:31 | 21.29978 | -157.55055 | 5976 ft | 226 kts | 221° |
| 2026-05-05 18:32 | 21.28794 | -157.56159 | 5968 ft | 225 kts | 221° |
| 2026-05-05 18:32 | 21.27612 | -157.57262 | 5983 ft | 226 kts | 221° |
| 2026-05-05 18:32 | 21.26429 | -157.58365 | 5972 ft | 225 kts | 221° |
| 2026-05-05 18:32 | 21.25247 | -157.59466 | 5985 ft | 225 kts | 221° |
| 2026-05-05 18:33 | 21.24065 | -157.60569 | 5990 ft | 226 kts | 221° |
| 2026-05-05 18:33 | 21.22838 | -157.61628 | 5991 ft | 228 kts | 217° |
| 2026-05-05 18:33 | 21.21624 | -157.62698 | 5993 ft | 225 kts | 220° |
| 2026-05-05 18:33 | 21.20478 | -157.63846 | 5965 ft | 226 kts | 231° |
| 2026-05-05 18:34 | 21.19992 | -157.65467 | 5946 ft | 249 kts | 262° |
| 2026-05-05 18:34 | 21.19904 | -157.67505 | 5947 ft | 293 kts | 267° |
| 2026-05-05 18:34 | 21.19873 | -157.69601 | 5682 ft | 261 kts | 268° |
| 2026-05-05 18:34 | 21.19856 | -157.71427 | 5491 ft | 240 kts | 268° |
| 2026-05-05 18:35 | 21.19842 | -157.73178 | 5286 ft | 231 kts | 270° |
| 2026-05-05 18:35 | 21.19990 | -157.74878 | 5075 ft | 228 kts | 276° |
| 2026-05-05 18:35 | 21.20210 | -157.76556 | 4873 ft | 227 kts | 277° |
| 2026-05-05 18:35 | 21.20434 | -157.78226 | 4670 ft | 226 kts | 277° |
| 2026-05-05 18:36 | 21.20654 | -157.79888 | 4495 ft | 224 kts | 277° |
| 2026-05-05 18:36 | 21.20873 | -157.81540 | 4368 ft | 224 kts | 277° |
| 2026-05-05 18:36 | 21.21093 | -157.83192 | 4241 ft | 224 kts | 277° |
| 2026-05-05 18:36 | 21.21314 | -157.84845 | 4117 ft | 224 kts | 277° |
| 2026-05-05 18:37 | 21.21534 | -157.86499 | 3998 ft | 224 kts | 277° |
| 2026-05-05 18:37 | 21.21756 | -157.88148 | 3873 ft | 224 kts | 277° |
| 2026-05-05 18:37 | 21.21979 | -157.89796 | 3752 ft | 223 kts | 277° |
| 2026-05-05 18:37 | 21.22202 | -157.91441 | 3630 ft | 223 kts | 277° |
| 2026-05-05 18:38 | 21.22404 | -157.93086 | 3506 ft | 222 kts | 273° |
| 2026-05-05 18:38 | 21.21979 | -157.94640 | 3313 ft | 220 kts | 239° |
| 2026-05-05 18:38 | 21.21095 | -157.95975 | 3192 ft | 219 kts | 233° |
| 2026-05-05 18:38 | 21.20172 | -157.97276 | 3072 ft | 219 kts | 232° |
| 2026-05-05 18:39 | 21.19251 | -157.98569 | 3014 ft | 217 kts | 232° |
| 2026-05-05 18:39 | 21.18333 | -157.99860 | 3018 ft | 219 kts | 232° |
| 2026-05-05 18:39 | 21.17424 | -158.01165 | 3014 ft | 219 kts | 236° |
| 2026-05-05 18:39 | 21.16967 | -158.02715 | 3008 ft | 219 kts | 257° |
| 2026-05-05 18:40 | 21.16514 | -158.04280 | 3009 ft | 220 kts | 249° |
| 2026-05-05 18:40 | 21.15732 | -158.05672 | 3006 ft | 218 kts | 232° |
| 2026-05-05 18:40 | 21.15121 | -158.07139 | 2981 ft | 220 kts | 265° |
| 2026-05-05 18:40 | 21.15556 | -158.08618 | 2982 ft | 203 kts | 306° |
| 2026-05-05 18:41 | 21.16576 | -158.09609 | 3012 ft | 196 kts | 320° |
| 2026-05-05 18:41 | 21.17700 | -158.10426 | 2987 ft | 198 kts | 338° |
| 2026-05-05 18:41 | 21.19031 | -158.10408 | 2976 ft | 196 kts | 21° |
| 2026-05-05 18:41 | 21.19957 | -158.09382 | 2979 ft | 196 kts | 66° |
| 2026-05-05 18:42 | 21.20495 | -158.08051 | 2973 ft | 198 kts | 55° |
| 2026-05-05 18:42 | 21.21406 | -158.06969 | 3005 ft | 197 kts | 52° |
| 2026-05-05 18:42 | 21.22208 | -158.05768 | 2932 ft | 200 kts | 54° |
| 2026-05-05 18:42 | 21.23038 | -158.04584 | 2688 ft | 197 kts | 53° |
| 2026-05-05 18:43 | 21.23859 | -158.03416 | 2437 ft | 195 kts | 53° |
| 2026-05-05 18:43 | 21.24659 | -158.02278 | 2176 ft | 189 kts | 53° |
| 2026-05-05 18:43 | 21.25456 | -158.01143 | 1925 ft | 189 kts | 53° |
| 2026-05-05 18:43 | 21.26235 | -158.00036 | 1681 ft | 188 kts | 53° |
| 2026-05-05 18:44 | 21.27022 | -157.98916 | 1430 ft | 187 kts | 53° |
| 2026-05-05 18:44 | 21.27804 | -157.97803 | 1190 ft | 186 kts | 53° |
| 2026-05-05 18:44 | 21.28582 | -157.96696 | 948 ft | 186 kts | 53° |
| 2026-05-05 18:44 | 21.29365 | -157.95589 | 698 ft | 187 kts | 52° |
| 2026-05-05 18:45 | 21.30150 | -157.94477 | 461 ft | 187 kts | 53° |
| 2026-05-05 18:45 | 21.30932 | -157.93366 | 216 ft | 186 kts | 53° |
| 2026-05-05 18:45 | 21.31707 | -157.92264 | 45 ft | 183 kts | 54° |
| 2026-05-05 18:45 | 21.32372 | -157.91324 | 30 ft | 117 kts | 50° |
| 2026-05-05 18:46 | 21.32679 | -157.90930 | 30 ft | 25 kts | 50° |
| 2026-05-05 18:46 | 21.32750 | -157.90814 | 29 ft | 23 kts | 53° |
| 2026-05-05 18:46 | 21.32858 | -157.90670 | 29 ft | 29 kts | 42° |
| 2026-05-05 18:46 | 21.32929 | -157.90654 | 29 ft | 0 kts | 335° |
| 2026-05-05 18:47 | 21.32954 | -157.90686 | 29 ft | 16 kts | 306° |
| 2026-05-05 18:47 | 21.33044 | -157.90813 | 29 ft | 13 kts | 277° |
| 2026-05-05 18:47 | 21.33031 | -157.90862 | 29 ft | 14 kts | 246° |
| 2026-05-05 18:47 | 21.32985 | -157.90986 | 30 ft | 8 kts | 297° |
| 2026-05-05 18:48 | 21.32992 | -157.91079 | 30 ft | 11 kts | 237° |
| 2026-05-05 18:48 | 21.32951 | -157.91134 | 30 ft | 21 kts | 232° |
| 2026-05-05 18:48 | 21.32869 | -157.91248 | 30 ft | 11 kts | 233° |
| 2026-05-05 18:48 | 21.32814 | -157.91314 | 30 ft | 11 kts | 211° |
| 2026-05-05 18:49 | 21.32758 | -157.91322 | 30 ft | 7 kts | 196° |
| 2026-05-05 18:49 | 21.32713 | -157.91348 | 30 ft | 6 kts | 224° |
| 2026-05-05 18:49 | 21.32700 | -157.91378 | 30 ft | 3 kts | 260° |
| 2026-05-05 18:49 | 21.32694 | -157.91418 | 30 ft | 8 kts | 262° |
| 2026-05-05 18:50 | 21.32691 | -157.91487 | 30 ft | 12 kts | 268° |
| 2026-05-05 18:50 | 21.32692 | -157.91590 | 30 ft | 16 kts | 271° |
| 2026-05-05 18:50 | 21.32693 | -157.91723 | 30 ft | 20 kts | 272° |
| 2026-05-05 18:50 | 21.32709 | -157.91843 | 30 ft | 3 kts | 306° |
| 2026-05-05 18:51 | 21.32727 | -157.91860 | 30 ft | 1 kts | 333° |
| 2026-05-05 18:51 | 21.32752 | -157.91870 | 30 ft | 7 kts | 338° |
| 2026-05-05 18:51 | 21.32804 | -157.91897 | 30 ft | 10 kts | 332° |
| 2026-05-05 18:51 | 21.32865 | -157.91909 | 30 ft | 9 kts | 4° |
| 2026-05-05 18:52 | 21.32909 | -157.91903 | 30 ft | 10 kts | 5° |
| 2026-05-05 18:52 | 21.32995 | -157.91891 | 30 ft | 14 kts | 9° |
| 2026-05-05 18:52 | 21.33058 | -157.91880 | 30 ft | 0 kts | 10° |
| 2026-05-05 18:52 | 21.33072 | -157.91877 | 30 ft | 0 kts | 9° |
| 2026-05-05 18:53 | 21.33078 | -157.91876 | 30 ft | 0 kts | 9° |
| 2026-05-05 18:53 | 21.33082 | -157.91875 | 30 ft | 0 kts | 9° |